Friday, October 31, 2014, 5:13 PM EDT

KDOV, Dover Air Force Base

Location: Dover, DE, United States Lat: 39.133
Local Time: 5:13 PM EDT (21:13 GMT) Lon: -75.467
Time Zone: US/Eastern Elev: 29 ft

Show me the last for .
Show Decoded

2014-10-31 16:58 METAR KDOV 312058Z AUTO 36007KT 10SM OVC060 11/04 A2985 =
2014-10-31 15:58 METAR KDOV 311958Z AUTO 02009KT 10SM OVC055 11/04 A2985 =
2014-10-31 14:58 METAR KDOV 311858Z AUTO 35009KT 10SM BKN032 BKN055 12/05 A2986 =
2014-10-31 14:23 METAR KDOV 311823Z AUTO 03009KT 10SM SCT029 SCT039 12/05 A2987 RMK AO2 CIG 029
                 RWY19 =
2014-10-31 13:58 METAR KDOV 311758Z AUTO 35005KT 10SM OVC028 12/06 A2989 =
2014-10-31 13:33 METAR KDOV 311733Z AUTO 36009KT 10SM BKN028 12/06 A2989 RMK AO2 BKN V FEW =
2014-10-31 12:58 METAR KDOV 311658Z AUTO 35010KT 10SM CLR 11/06 A2991 =
2014-10-31 11:58 METAR KDOV 311558Z AUTO 34008KT 10SM FEW170 10/06 A2992 RMK AO2 SLP135 T01040057
                 =
2014-10-31 10:58 METAR KDOV 311458Z AUTO 03008KT 10SM FEW170 10/06 A2995 RMK AO2 SLP145 T00970056
                 58008 =
2014-10-31 09:58 METAR KDOV 311358Z AUTO 01007KT 10SM CLR 09/05 A2997 =
2014-10-31 08:58 METAR KDOV 311258Z AUTO 02009KT 10SM CLR 08/04 A2997 RMK AO2 SLP152 T00770042 =
2014-10-31 07:58 METAR KDOV 311158Z AUTO 01007KT 10SM CLR 05/03 A2997 RMK AO2 SLP152 T00450028
                 10074 20032 58005 =
2014-10-31 06:58 METAR KDOV 311058Z AUTO 36005KT 10SM OVC060 05/04 A2999 =
2014-10-31 05:58 METAR KDOV 310958Z AUTO 36007KT 10SM OVC055 06/05 A2999 =
2014-10-31 04:58 METAR KDOV 310858Z AUTO 35004KT 10SM OVC060 04/03 A2999 =
2014-10-31 03:58 METAR KDOV 310758Z AUTO 34004KT 10SM CLR 05/04 A2998 =
2014-10-31 02:58 METAR KDOV 310658Z AUTO 32003KT 10SM FEW055 06/03 A2999 RMK AO2 SLP159 T00590034
                 =
2014-10-31 01:58 METAR KDOV 310558Z AUTO 33003KT 10SM SCT060 06/04 A3000 RMK AO2 SLP162 T00610036
                 10102 20043 55004 =
2014-10-31 00:58 METAR KDOV 310458Z AUTO 36003KT 10SM SCT060 05/04 A3001 RMK AO2 SLP166 T00540038
                 401620043 =
2014-10-30 23:58 METAR KDOV 310358Z AUTO 36004KT 10SM CLR 05/04 A3001 =
2014-10-30 22:58 METAR KDOV 310258Z AUTO 32005KT 10SM CLR 07/04 A3002 RMK AO2 SLP169 T00720037
                 53002 =
2014-10-30 21:58 METAR KDOV 310158Z AUTO 33005KT 10SM CLR 08/04 A3001 RMK AO2 SLP166 T00820039 =
2014-10-30 20:58 METAR KDOV 310058Z AUTO 30002KT 10SM CLR 08/04 A3001 =
2014-10-30 19:58 METAR KDOV 302358Z AUTO 31005KT 10SM CLR 10/04 A3001 RMK AO2 SLP166 T00960038
                 10162 20095 52012 =
2014-10-30 18:58 METAR KDOV 302258Z AUTO 31007KT 10SM CLR 11/04 A3000 =
2014-10-30 17:58 METAR KDOV 302158Z AUTO 32007KT 10SM CLR 12/04 A2999 =

Support USWX by starting your Amazon purchase here.